sensor_id;sensor_type;location;lat;lon;timestamp;temperature;humidity
21244;DHT22;10780;50.942;4.028;2023-08-06T00:00:22;17.20;99.90
21244;DHT22;10780;50.942;4.028;2023-08-06T00:02:48;17.30;99.90
21244;DHT22;10780;50.942;4.028;2023-08-06T00:05:14;17.30;99.90
21244;DHT22;10780;50.942;4.028;2023-08-06T00:07:52;17.30;99.90
21244;DHT22;10780;50.942;4.028;2023-08-06T00:10:18;17.20;99.90
21244;DHT22;10780;50.942;4.028;2023-08-06T00:12:44;17.20;99.90
21244;DHT22;10780;50.942;4.028;2023-08-06T00:15:10;17.20;99.90
21244;DHT22;10780;50.942;4.028;2023-08-06T00:17:36;17.10;99.90
21244;DHT22;10780;50.942;4.028;2023-08-06T00:20:03;17.00;99.90
21244;DHT22;10780;50.942;4.028;2023-08-06T00:22:36;17.00;99.90
21244;DHT22;10780;50.942;4.028;2023-08-06T00:25:03;16.90;99.90
21244;DHT22;10780;50.942;4.028;2023-08-06T00:27:29;16.90;99.90
21244;DHT22;10780;50.942;4.028;2023-08-06T00:29:55;16.70;99.90
21244;DHT22;10780;50.942;4.028;2023-08-06T00:32:21;16.80;99.90
21244;DHT22;10780;50.942;4.028;2023-08-06T00:34:47;16.70;99.90
21244;DHT22;10780;50.942;4.028;2023-08-06T00:37:15;16.70;99.90
21244;DHT22;10780;50.942;4.028;2023-08-06T00:39:42;16.50;99.90
21244;DHT22;10780;50.942;4.028;2023-08-06T00:42:08;16.40;99.90
21244;DHT22;10780;50.942;4.028;2023-08-06T00:44:33;16.40;99.90
21244;DHT22;10780;50.942;4.028;2023-08-06T00:46:59;16.30;99.90
21244;DHT22;10780;50.942;4.028;2023-08-06T00:49:25;16.20;99.90
21244;DHT22;10780;50.942;4.028;2023-08-06T00:51:50;16.10;99.90
21244;DHT22;10780;50.942;4.028;2023-08-06T00:54:17;16.10;99.90
21244;DHT22;10780;50.942;4.028;2023-08-06T00:56:42;16.10;99.90
21244;DHT22;10780;50.942;4.028;2023-08-06T00:59:10;16.00;99.90
21244;DHT22;10780;50.942;4.028;2023-08-06T01:01:36;16.20;99.90
21244;DHT22;10780;50.942;4.028;2023-08-06T01:04:01;16.30;99.90
21244;DHT22;10780;50.942;4.028;2023-08-06T01:06:46;16.40;99.90
21244;DHT22;10780;50.942;4.028;2023-08-06T01:11:58;16.40;99.90
21244;DHT22;10780;50.942;4.028;2023-08-06T01:14:33;16.40;99.90
21244;DHT22;10780;50.942;4.028;2023-08-06T01:17:03;16.30;99.90
21244;DHT22;10780;50.942;4.028;2023-08-06T01:19:30;16.30;99.90
21244;DHT22;10780;50.942;4.028;2023-08-06T01:21:55;16.20;99.90
21244;DHT22;10780;50.942;4.028;2023-08-06T01:24:21;16.10;99.90
21244;DHT22;10780;50.942;4.028;2023-08-06T01:27:08;16.10;99.90
21244;DHT22;10780;50.942;4.028;2023-08-06T01:29:46;16.10;99.90
21244;DHT22;10780;50.942;4.028;2023-08-06T01:32:14;16.10;99.90
21244;DHT22;10780;50.942;4.028;2023-08-06T01:34:41;16.10;99.90
21244;DHT22;10780;50.942;4.028;2023-08-06T01:37:09;16.10;99.90
21244;DHT22;10780;50.942;4.028;2023-08-06T01:39:35;16.10;99.90
21244;DHT22;10780;50.942;4.028;2023-08-06T01:42:01;16.20;99.90
21244;DHT22;10780;50.942;4.028;2023-08-06T01:44:26;16.20;99.90
21244;DHT22;10780;50.942;4.028;2023-08-06T01:46:52;16.20;99.90
21244;DHT22;10780;50.942;4.028;2023-08-06T01:49:18;16.20;99.90
21244;DHT22;10780;50.942;4.028;2023-08-06T01:51:43;16.30;99.90
21244;DHT22;10780;50.942;4.028;2023-08-06T01:54:09;16.20;99.90
21244;DHT22;10780;50.942;4.028;2023-08-06T01:56:34;16.10;99.90
21244;DHT22;10780;50.942;4.028;2023-08-06T01:59:00;16.10;99.90
21244;DHT22;10780;50.942;4.028;2023-08-06T02:01:26;16.20;99.90
21244;DHT22;10780;50.942;4.028;2023-08-06T02:03:51;16.20;99.90
21244;DHT22;10780;50.942;4.028;2023-08-06T02:06:17;16.30;99.90
21244;DHT22;10780;50.942;4.028;2023-08-06T02:08:42;16.30;99.90
21244;DHT22;10780;50.942;4.028;2023-08-06T02:11:08;16.30;99.90
21244;DHT22;10780;50.942;4.028;2023-08-06T02:13:33;16.20;99.90
21244;DHT22;10780;50.942;4.028;2023-08-06T02:15:59;16.10;99.90
21244;DHT22;10780;50.942;4.028;2023-08-06T02:18:25;15.90;99.90
21244;DHT22;10780;50.942;4.028;2023-08-06T02:21:00;15.80;99.90
21244;DHT22;10780;50.942;4.028;2023-08-06T02:23:26;15.70;99.90
21244;DHT22;10780;50.942;4.028;2023-08-06T02:26:02;15.60;99.90
21244;DHT22;10780;50.942;4.028;2023-08-06T02:28:28;15.60;99.90
21244;DHT22;10780;50.942;4.028;2023-08-06T02:30:54;15.60;99.90
21244;DHT22;10780;50.942;4.028;2023-08-06T02:33:20;15.60;99.90
21244;DHT22;10780;50.942;4.028;2023-08-06T02:35:45;15.40;99.90
21244;DHT22;10780;50.942;4.028;2023-08-06T02:38:11;15.50;99.90
21244;DHT22;10780;50.942;4.028;2023-08-06T02:40:42;15.50;99.90
21244;DHT22;10780;50.942;4.028;2023-08-06T02:43:08;15.60;99.90
21244;DHT22;10780;50.942;4.028;2023-08-06T02:45:33;15.50;99.90
21244;DHT22;10780;50.942;4.028;2023-08-06T02:47:59;15.50;99.90
21244;DHT22;10780;50.942;4.028;2023-08-06T02:50:24;15.50;99.90
21244;DHT22;10780;50.942;4.028;2023-08-06T02:52:50;15.50;99.90
21244;DHT22;10780;50.942;4.028;2023-08-06T02:55:15;15.40;99.90
21244;DHT22;10780;50.942;4.028;2023-08-06T02:57:41;15.30;99.90
21244;DHT22;10780;50.942;4.028;2023-08-06T03:00:07;15.20;99.90
21244;DHT22;10780;50.942;4.028;2023-08-06T03:02:33;15.10;99.90
21244;DHT22;10780;50.942;4.028;2023-08-06T03:04:58;15.10;99.90
21244;DHT22;10780;50.942;4.028;2023-08-06T03:07:24;15.10;99.90
21244;DHT22;10780;50.942;4.028;2023-08-06T03:09:49;15.10;99.90
21244;DHT22;10780;50.942;4.028;2023-08-06T03:12:15;15.10;99.90
21244;DHT22;10780;50.942;4.028;2023-08-06T03:14:41;15.00;99.90
21244;DHT22;10780;50.942;4.028;2023-08-06T03:17:06;15.00;99.90
21244;DHT22;10780;50.942;4.028;2023-08-06T03:19:32;14.90;99.90
21244;DHT22;10780;50.942;4.028;2023-08-06T03:21:57;14.90;99.90
21244;DHT22;10780;50.942;4.028;2023-08-06T03:24:23;14.80;99.90
21244;DHT22;10780;50.942;4.028;2023-08-06T03:26:48;14.70;99.90
21244;DHT22;10780;50.942;4.028;2023-08-06T03:29:14;14.60;99.90
21244;DHT22;10780;50.942;4.028;2023-08-06T03:31:40;14.50;99.90
21244;DHT22;10780;50.942;4.028;2023-08-06T03:34:05;14.50;99.90
21244;DHT22;10780;50.942;4.028;2023-08-06T03:36:31;14.50;99.90
21244;DHT22;10780;50.942;4.028;2023-08-06T03:38:57;14.40;99.90
21244;DHT22;10780;50.942;4.028;2023-08-06T03:41:23;14.40;99.90
21244;DHT22;10780;50.942;4.028;2023-08-06T03:43:48;14.40;99.90
21244;DHT22;10780;50.942;4.028;2023-08-06T03:46:14;14.40;99.90
21244;DHT22;10780;50.942;4.028;2023-08-06T03:48:39;14.40;99.90
21244;DHT22;10780;50.942;4.028;2023-08-06T03:51:05;14.40;99.90
21244;DHT22;10780;50.942;4.028;2023-08-06T03:53:30;14.40;99.90
21244;DHT22;10780;50.942;4.028;2023-08-06T03:55:56;14.40;99.90
21244;DHT22;10780;50.942;4.028;2023-08-06T03:58:25;14.40;99.90
21244;DHT22;10780;50.942;4.028;2023-08-06T04:00:59;14.40;99.90
21244;DHT22;10780;50.942;4.028;2023-08-06T04:03:25;14.40;99.90
21244;DHT22;10780;50.942;4.028;2023-08-06T04:05:51;14.30;99.90
21244;DHT22;10780;50.942;4.028;2023-08-06T04:08:16;14.30;99.90
21244;DHT22;10780;50.942;4.028;2023-08-06T04:10:43;14.20;99.90
21244;DHT22;10780;50.942;4.028;2023-08-06T04:13:09;14.20;99.90
21244;DHT22;10780;50.942;4.028;2023-08-06T04:15:34;14.10;99.90
21244;DHT22;10780;50.942;4.028;2023-08-06T04:18:00;14.10;99.90
21244;DHT22;10780;50.942;4.028;2023-08-06T04:20:26;14.10;99.90
21244;DHT22;10780;50.942;4.028;2023-08-06T04:22:54;14.00;99.90
21244;DHT22;10780;50.942;4.028;2023-08-06T04:25:20;14.10;99.90
21244;DHT22;10780;50.942;4.028;2023-08-06T04:27:49;14.10;99.90
21244;DHT22;10780;50.942;4.028;2023-08-06T04:30:15;14.10;99.90
21244;DHT22;10780;50.942;4.028;2023-08-06T04:32:41;14.10;99.90
21244;DHT22;10780;50.942;4.028;2023-08-06T04:35:07;14.20;99.90
21244;DHT22;10780;50.942;4.028;2023-08-06T04:37:33;14.20;99.90
21244;DHT22;10780;50.942;4.028;2023-08-06T04:39:58;14.20;99.90
21244;DHT22;10780;50.942;4.028;2023-08-06T04:42:24;14.20;99.90
21244;DHT22;10780;50.942;4.028;2023-08-06T04:44:50;14.20;99.90
21244;DHT22;10780;50.942;4.028;2023-08-06T04:47:15;14.30;99.90
21244;DHT22;10780;50.942;4.028;2023-08-06T04:49:41;14.30;99.90
21244;DHT22;10780;50.942;4.028;2023-08-06T04:52:07;14.30;99.90
21244;DHT22;10780;50.942;4.028;2023-08-06T04:54:33;14.30;99.90
21244;DHT22;10780;50.942;4.028;2023-08-06T04:56:59;14.30;99.90
21244;DHT22;10780;50.942;4.028;2023-08-06T04:59:24;14.30;99.90
21244;DHT22;10780;50.942;4.028;2023-08-06T05:01:50;14.30;99.90
21244;DHT22;10780;50.942;4.028;2023-08-06T05:04:16;14.30;99.90
21244;DHT22;10780;50.942;4.028;2023-08-06T05:06:41;14.40;99.90
21244;DHT22;10780;50.942;4.028;2023-08-06T05:09:07;14.40;99.90
21244;DHT22;10780;50.942;4.028;2023-08-06T05:11:32;14.40;99.90
21244;DHT22;10780;50.942;4.028;2023-08-06T05:13:58;14.30;99.90
21244;DHT22;10780;50.942;4.028;2023-08-06T05:16:24;14.30;99.90
21244;DHT22;10780;50.942;4.028;2023-08-06T05:18:49;14.30;99.90
21244;DHT22;10780;50.942;4.028;2023-08-06T05:21:15;14.30;99.90
21244;DHT22;10780;50.942;4.028;2023-08-06T05:23:42;14.20;99.90
21244;DHT22;10780;50.942;4.028;2023-08-06T05:26:07;14.20;99.90
21244;DHT22;10780;50.942;4.028;2023-08-06T05:28:34;14.20;99.90
21244;DHT22;10780;50.942;4.028;2023-08-06T05:31:06;14.20;99.90
21244;DHT22;10780;50.942;4.028;2023-08-06T05:33:32;14.20;99.90
21244;DHT22;10780;50.942;4.028;2023-08-06T05:35:57;14.20;99.90
21244;DHT22;10780;50.942;4.028;2023-08-06T05:38:23;14.20;99.90
21244;DHT22;10780;50.942;4.028;2023-08-06T05:40:49;14.20;99.90
21244;DHT22;10780;50.942;4.028;2023-08-06T05:43:15;14.20;99.90
21244;DHT22;10780;50.942;4.028;2023-08-06T05:45:44;14.30;99.90
21244;DHT22;10780;50.942;4.028;2023-08-06T05:48:10;14.30;99.90
21244;DHT22;10780;50.942;4.028;2023-08-06T05:50:36;14.30;99.90
21244;DHT22;10780;50.942;4.028;2023-08-06T05:53:02;14.30;99.90
21244;DHT22;10780;50.942;4.028;2023-08-06T05:55:27;14.30;99.90
21244;DHT22;10780;50.942;4.028;2023-08-06T05:57:53;14.30;99.90
21244;DHT22;10780;50.942;4.028;2023-08-06T06:00:20;14.30;99.90
21244;DHT22;10780;50.942;4.028;2023-08-06T06:02:46;14.40;99.90
21244;DHT22;10780;50.942;4.028;2023-08-06T06:05:11;14.40;99.90
21244;DHT22;10780;50.942;4.028;2023-08-06T06:07:37;14.50;99.90
21244;DHT22;10780;50.942;4.028;2023-08-06T06:10:02;14.50;99.90
21244;DHT22;10780;50.942;4.028;2023-08-06T06:12:28;14.60;99.90
21244;DHT22;10780;50.942;4.028;2023-08-06T06:14:54;14.70;99.90
21244;DHT22;10780;50.942;4.028;2023-08-06T06:17:20;14.70;99.90
21244;DHT22;10780;50.942;4.028;2023-08-06T06:19:45;14.80;99.90
21244;DHT22;10780;50.942;4.028;2023-08-06T06:22:12;14.80;99.90
21244;DHT22;10780;50.942;4.028;2023-08-06T06:24:37;14.80;99.90
21244;DHT22;10780;50.942;4.028;2023-08-06T06:27:03;14.70;99.90
21244;DHT22;10780;50.942;4.028;2023-08-06T06:29:29;14.70;99.90
21244;DHT22;10780;50.942;4.028;2023-08-06T06:31:55;14.60;99.90
21244;DHT22;10780;50.942;4.028;2023-08-06T06:34:20;14.50;99.90
21244;DHT22;10780;50.942;4.028;2023-08-06T06:36:46;14.30;99.90
21244;DHT22;10780;50.942;4.028;2023-08-06T06:39:12;14.20;99.90
21244;DHT22;10780;50.942;4.028;2023-08-06T06:41:37;14.20;99.90
21244;DHT22;10780;50.942;4.028;2023-08-06T06:44:03;14.30;99.90
21244;DHT22;10780;50.942;4.028;2023-08-06T06:46:28;14.30;99.90
21244;DHT22;10780;50.942;4.028;2023-08-06T06:48:54;14.40;99.90
21244;DHT22;10780;50.942;4.028;2023-08-06T06:51:20;14.50;99.90
21244;DHT22;10780;50.942;4.028;2023-08-06T06:53:45;14.50;99.90
21244;DHT22;10780;50.942;4.028;2023-08-06T06:56:11;14.40;99.90
21244;DHT22;10780;50.942;4.028;2023-08-06T06:58:36;14.50;99.90
21244;DHT22;10780;50.942;4.028;2023-08-06T07:01:04;14.50;99.90
21244;DHT22;10780;50.942;4.028;2023-08-06T07:03:30;14.50;99.90
21244;DHT22;10780;50.942;4.028;2023-08-06T07:05:59;14.40;99.90
21244;DHT22;10780;50.942;4.028;2023-08-06T07:08:25;14.40;99.90
21244;DHT22;10780;50.942;4.028;2023-08-06T07:11:00;14.50;99.90
21244;DHT22;10780;50.942;4.028;2023-08-06T07:13:26;14.60;99.90
21244;DHT22;10780;50.942;4.028;2023-08-06T07:15:52;14.70;99.90
21244;DHT22;10780;50.942;4.028;2023-08-06T07:18:19;14.70;99.90
21244;DHT22;10780;50.942;4.028;2023-08-06T07:20:51;14.90;99.90
21244;DHT22;10780;50.942;4.028;2023-08-06T07:23:21;15.00;99.90
21244;DHT22;10780;50.942;4.028;2023-08-06T07:25:47;15.00;99.90
21244;DHT22;10780;50.942;4.028;2023-08-06T07:28:13;15.00;99.90
21244;DHT22;10780;50.942;4.028;2023-08-06T07:30:40;15.20;99.90
21244;DHT22;10780;50.942;4.028;2023-08-06T07:33:06;15.30;99.90
21244;DHT22;10780;50.942;4.028;2023-08-06T07:35:32;15.30;99.90
21244;DHT22;10780;50.942;4.028;2023-08-06T07:37:57;15.50;99.90
21244;DHT22;10780;50.942;4.028;2023-08-06T07:40:23;15.60;99.90
21244;DHT22;10780;50.942;4.028;2023-08-06T07:42:49;15.70;99.90
21244;DHT22;10780;50.942;4.028;2023-08-06T07:45:15;15.80;99.90
21244;DHT22;10780;50.942;4.028;2023-08-06T07:47:40;16.00;99.90
21244;DHT22;10780;50.942;4.028;2023-08-06T07:50:07;16.00;99.90
21244;DHT22;10780;50.942;4.028;2023-08-06T07:52:32;15.90;99.90
21244;DHT22;10780;50.942;4.028;2023-08-06T07:54:58;15.70;99.90
21244;DHT22;10780;50.942;4.028;2023-08-06T07:57:24;15.70;99.90
21244;DHT22;10780;50.942;4.028;2023-08-06T07:59:49;15.50;99.90
21244;DHT22;10780;50.942;4.028;2023-08-06T08:02:15;15.30;99.90
21244;DHT22;10780;50.942;4.028;2023-08-06T08:04:41;15.10;99.90
21244;DHT22;10780;50.942;4.028;2023-08-06T08:07:09;14.90;99.90
21244;DHT22;10780;50.942;4.028;2023-08-06T08:09:35;14.90;99.90
21244;DHT22;10780;50.942;4.028;2023-08-06T08:12:01;14.80;99.90
21244;DHT22;10780;50.942;4.028;2023-08-06T08:14:28;14.80;99.90
21244;DHT22;10780;50.942;4.028;2023-08-06T08:16:54;14.80;99.90
21244;DHT22;10780;50.942;4.028;2023-08-06T08:19:20;15.00;99.90
21244;DHT22;10780;50.942;4.028;2023-08-06T08:21:46;15.40;99.90
21244;DHT22;10780;50.942;4.028;2023-08-06T08:24:12;15.80;99.90
21244;DHT22;10780;50.942;4.028;2023-08-06T08:26:37;15.90;99.90
21244;DHT22;10780;50.942;4.028;2023-08-06T08:29:03;16.00;99.90
21244;DHT22;10780;50.942;4.028;2023-08-06T08:31:29;15.90;99.90
21244;DHT22;10780;50.942;4.028;2023-08-06T08:33:55;15.60;99.90
21244;DHT22;10780;50.942;4.028;2023-08-06T08:36:20;15.40;99.90
21244;DHT22;10780;50.942;4.028;2023-08-06T08:38:46;15.40;99.90
21244;DHT22;10780;50.942;4.028;2023-08-06T08:41:12;15.40;99.90
21244;DHT22;10780;50.942;4.028;2023-08-06T08:43:38;15.40;99.90
21244;DHT22;10780;50.942;4.028;2023-08-06T08:46:05;15.30;99.90
21244;DHT22;10780;50.942;4.028;2023-08-06T08:48:33;15.20;99.90
21244;DHT22;10780;50.942;4.028;2023-08-06T08:50:59;15.20;99.90
21244;DHT22;10780;50.942;4.028;2023-08-06T08:53:25;15.20;99.90
21244;DHT22;10780;50.942;4.028;2023-08-06T08:55:53;15.20;99.90
21244;DHT22;10780;50.942;4.028;2023-08-06T08:58:18;15.30;99.90
21244;DHT22;10780;50.942;4.028;2023-08-06T09:00:46;15.40;99.90
21244;DHT22;10780;50.942;4.028;2023-08-06T09:03:16;15.40;99.90
21244;DHT22;10780;50.942;4.028;2023-08-06T09:05:45;15.10;99.90
21244;DHT22;10780;50.942;4.028;2023-08-06T09:08:14;15.10;99.90
21244;DHT22;10780;50.942;4.028;2023-08-06T09:10:43;15.20;99.90
21244;DHT22;10780;50.942;4.028;2023-08-06T09:13:09;15.00;99.90
21244;DHT22;10780;50.942;4.028;2023-08-06T09:15:34;15.10;99.90
21244;DHT22;10780;50.942;4.028;2023-08-06T09:18:00;15.10;99.90
21244;DHT22;10780;50.942;4.028;2023-08-06T09:20:34;15.00;99.90
21244;DHT22;10780;50.942;4.028;2023-08-06T09:23:07;14.80;99.90
21244;DHT22;10780;50.942;4.028;2023-08-06T09:25:33;14.80;99.90
21244;DHT22;10780;50.942;4.028;2023-08-06T09:27:58;14.80;99.90
21244;DHT22;10780;50.942;4.028;2023-08-06T09:30:35;14.80;99.90
21244;DHT22;10780;50.942;4.028;2023-08-06T09:33:01;14.80;99.90
21244;DHT22;10780;50.942;4.028;2023-08-06T09:35:31;14.90;99.90
21244;DHT22;10780;50.942;4.028;2023-08-06T09:38:06;15.10;99.90
21244;DHT22;10780;50.942;4.028;2023-08-06T09:40:36;15.50;99.90
21244;DHT22;10780;50.942;4.028;2023-08-06T09:43:02;15.60;99.90
21244;DHT22;10780;50.942;4.028;2023-08-06T09:45:35;15.90;99.90
21244;DHT22;10780;50.942;4.028;2023-08-06T09:48:06;16.30;99.90
21244;DHT22;10780;50.942;4.028;2023-08-06T09:50:33;16.30;99.90
21244;DHT22;10780;50.942;4.028;2023-08-06T09:53:06;16.40;99.90
21244;DHT22;10780;50.942;4.028;2023-08-06T09:55:32;16.50;99.90
21244;DHT22;10780;50.942;4.028;2023-08-06T09:57:59;16.40;99.90
21244;DHT22;10780;50.942;4.028;2023-08-06T10:00:25;16.50;99.90
21244;DHT22;10780;50.942;4.028;2023-08-06T10:02:53;16.70;99.90
21244;DHT22;10780;50.942;4.028;2023-08-06T10:05:21;16.80;99.90
21244;DHT22;10780;50.942;4.028;2023-08-06T10:07:48;16.70;99.90
21244;DHT22;10780;50.942;4.028;2023-08-06T10:10:16;16.60;99.90
21244;DHT22;10780;50.942;4.028;2023-08-06T10:12:52;16.40;99.90
21244;DHT22;10780;50.942;4.028;2023-08-06T10:15:23;16.00;99.90
21244;DHT22;10780;50.942;4.028;2023-08-06T10:17:53;15.90;99.90
21244;DHT22;10780;50.942;4.028;2023-08-06T10:20:20;15.70;99.90
21244;DHT22;10780;50.942;4.028;2023-08-06T10:23:00;15.40;99.90
21244;DHT22;10780;50.942;4.028;2023-08-06T10:25:26;15.30;99.90
21244;DHT22;10780;50.942;4.028;2023-08-06T10:30:33;15.40;99.90
21244;DHT22;10780;50.942;4.028;2023-08-06T10:33:08;15.70;99.90
21244;DHT22;10780;50.942;4.028;2023-08-06T10:35:50;15.80;99.90
21244;DHT22;10780;50.942;4.028;2023-08-06T10:38:22;16.20;99.90
21244;DHT22;10780;50.942;4.028;2023-08-06T10:43:28;16.60;99.90
21244;DHT22;10780;50.942;4.028;2023-08-06T10:45:55;16.70;99.90
21244;DHT22;10780;50.942;4.028;2023-08-06T10:48:40;16.80;99.90
21244;DHT22;10780;50.942;4.028;2023-08-06T10:51:11;16.60;99.90
21244;DHT22;10780;50.942;4.028;2023-08-06T10:53:38;16.60;99.90
21244;DHT22;10780;50.942;4.028;2023-08-06T10:56:14;16.60;99.90
21244;DHT22;10780;50.942;4.028;2023-08-06T10:58:41;16.90;99.90
21244;DHT22;10780;50.942;4.028;2023-08-06T11:01:06;16.90;99.90
21244;DHT22;10780;50.942;4.028;2023-08-06T11:03:36;16.80;99.90
21244;DHT22;10780;50.942;4.028;2023-08-06T11:06:02;16.70;99.90
21244;DHT22;10780;50.942;4.028;2023-08-06T11:08:29;16.60;99.90
21244;DHT22;10780;50.942;4.028;2023-08-06T11:10:55;16.60;99.90
21244;DHT22;10780;50.942;4.028;2023-08-06T11:13:32;16.60;99.90
21244;DHT22;10780;50.942;4.028;2023-08-06T11:15:58;16.40;99.90
21244;DHT22;10780;50.942;4.028;2023-08-06T11:18:24;16.30;99.90
21244;DHT22;10780;50.942;4.028;2023-08-06T11:20:49;16.50;99.90
21244;DHT22;10780;50.942;4.028;2023-08-06T11:23:15;16.40;99.90
21244;DHT22;10780;50.942;4.028;2023-08-06T11:25:44;16.00;99.90
21244;DHT22;10780;50.942;4.028;2023-08-06T11:28:11;15.40;99.90
21244;DHT22;10780;50.942;4.028;2023-08-06T11:30:38;15.10;99.90
21244;DHT22;10780;50.942;4.028;2023-08-06T11:33:03;15.10;99.90
21244;DHT22;10780;50.942;4.028;2023-08-06T11:35:34;14.90;99.90
21244;DHT22;10780;50.942;4.028;2023-08-06T11:38:00;15.00;99.90
21244;DHT22;10780;50.942;4.028;2023-08-06T11:40:26;15.00;99.90
21244;DHT22;10780;50.942;4.028;2023-08-06T11:42:52;15.00;99.90
21244;DHT22;10780;50.942;4.028;2023-08-06T11:45:22;15.20;99.90
21244;DHT22;10780;50.942;4.028;2023-08-06T11:47:52;15.20;99.90
21244;DHT22;10780;50.942;4.028;2023-08-06T11:50:27;15.20;99.90
21244;DHT22;10780;50.942;4.028;2023-08-06T11:52:59;15.50;99.90
21244;DHT22;10780;50.942;4.028;2023-08-06T11:55:26;15.60;99.90
21244;DHT22;10780;50.942;4.028;2023-08-06T11:57:53;15.70;99.90
21244;DHT22;10780;50.942;4.028;2023-08-06T12:00:19;15.80;99.90
21244;DHT22;10780;50.942;4.028;2023-08-06T12:02:48;15.80;99.90
21244;DHT22;10780;50.942;4.028;2023-08-06T12:05:31;15.70;99.90
21244;DHT22;10780;50.942;4.028;2023-08-06T12:08:00;15.70;99.90
21244;DHT22;10780;50.942;4.028;2023-08-06T12:10:27;16.10;99.90
21244;DHT22;10780;50.942;4.028;2023-08-06T12:12:53;16.40;99.90
21244;DHT22;10780;50.942;4.028;2023-08-06T12:15:20;16.40;99.90
21244;DHT22;10780;50.942;4.028;2023-08-06T12:17:45;16.20;99.90
21244;DHT22;10780;50.942;4.028;2023-08-06T12:20:11;15.90;99.90
21244;DHT22;10780;50.942;4.028;2023-08-06T12:22:38;15.50;99.90
21244;DHT22;10780;50.942;4.028;2023-08-06T12:25:13;15.30;99.90
21244;DHT22;10780;50.942;4.028;2023-08-06T12:27:41;15.20;99.90
21244;DHT22;10780;50.942;4.028;2023-08-06T12:30:07;15.10;99.90
21244;DHT22;10780;50.942;4.028;2023-08-06T12:32:34;15.30;99.90
21244;DHT22;10780;50.942;4.028;2023-08-06T12:35:00;15.40;99.90
21244;DHT22;10780;50.942;4.028;2023-08-06T12:37:27;15.90;99.90
21244;DHT22;10780;50.942;4.028;2023-08-06T12:39:52;16.10;99.90
21244;DHT22;10780;50.942;4.028;2023-08-06T12:42:18;16.00;99.90
21244;DHT22;10780;50.942;4.028;2023-08-06T12:44:44;15.90;99.90
21244;DHT22;10780;50.942;4.028;2023-08-06T12:47:09;15.90;99.90
21244;DHT22;10780;50.942;4.028;2023-08-06T12:49:35;16.10;99.90
21244;DHT22;10780;50.942;4.028;2023-08-06T12:52:01;16.20;99.90
21244;DHT22;10780;50.942;4.028;2023-08-06T12:54:28;16.30;99.90
21244;DHT22;10780;50.942;4.028;2023-08-06T12:56:54;16.20;99.90
21244;DHT22;10780;50.942;4.028;2023-08-06T12:59:20;16.10;99.90
21244;DHT22;10780;50.942;4.028;2023-08-06T13:01:46;16.00;99.90
21244;DHT22;10780;50.942;4.028;2023-08-06T13:04:12;16.10;99.90
21244;DHT22;10780;50.942;4.028;2023-08-06T13:06:38;16.10;99.90
21244;DHT22;10780;50.942;4.028;2023-08-06T13:09:09;16.10;99.90
21244;DHT22;10780;50.942;4.028;2023-08-06T13:11:39;15.90;99.90
21244;DHT22;10780;50.942;4.028;2023-08-06T13:14:09;15.70;99.90
21244;DHT22;10780;50.942;4.028;2023-08-06T13:16:36;15.60;99.90
21244;DHT22;10780;50.942;4.028;2023-08-06T13:19:04;15.40;99.90
21244;DHT22;10780;50.942;4.028;2023-08-06T13:24:23;15.40;99.90
21244;DHT22;10780;50.942;4.028;2023-08-06T13:26:49;15.50;99.90
21244;DHT22;10780;50.942;4.028;2023-08-06T13:29:15;15.50;99.90
21244;DHT22;10780;50.942;4.028;2023-08-06T13:31:40;15.50;99.90
21244;DHT22;10780;50.942;4.028;2023-08-06T13:34:06;15.40;99.90
21244;DHT22;10780;50.942;4.028;2023-08-06T13:36:32;15.50;99.90
21244;DHT22;10780;50.942;4.028;2023-08-06T13:38:57;15.40;99.90
21244;DHT22;10780;50.942;4.028;2023-08-06T13:41:23;15.20;99.90
21244;DHT22;10780;50.942;4.028;2023-08-06T13:43:49;15.20;99.90
21244;DHT22;10780;50.942;4.028;2023-08-06T13:46:15;15.20;99.90
21244;DHT22;10780;50.942;4.028;2023-08-06T13:48:43;15.20;99.90
21244;DHT22;10780;50.942;4.028;2023-08-06T13:51:10;15.20;99.90
21244;DHT22;10780;50.942;4.028;2023-08-06T13:53:37;15.20;99.90
21244;DHT22;10780;50.942;4.028;2023-08-06T13:56:03;15.10;99.90
21244;DHT22;10780;50.942;4.028;2023-08-06T13:58:28;15.00;99.90
21244;DHT22;10780;50.942;4.028;2023-08-06T14:00:54;15.00;99.90
21244;DHT22;10780;50.942;4.028;2023-08-06T14:03:20;15.00;99.90
21244;DHT22;10780;50.942;4.028;2023-08-06T14:05:46;14.90;99.90
21244;DHT22;10780;50.942;4.028;2023-08-06T14:08:11;14.80;99.90
21244;DHT22;10780;50.942;4.028;2023-08-06T14:10:37;14.80;99.90
21244;DHT22;10780;50.942;4.028;2023-08-06T14:13:03;14.80;99.90
21244;DHT22;10780;50.942;4.028;2023-08-06T14:15:28;14.90;99.90
21244;DHT22;10780;50.942;4.028;2023-08-06T14:17:54;15.10;99.90
21244;DHT22;10780;50.942;4.028;2023-08-06T14:20:20;15.20;99.90
21244;DHT22;10780;50.942;4.028;2023-08-06T14:22:45;15.40;99.90
21244;DHT22;10780;50.942;4.028;2023-08-06T14:25:11;15.80;99.90
21244;DHT22;10780;50.942;4.028;2023-08-06T14:27:36;16.00;99.90
21244;DHT22;10780;50.942;4.028;2023-08-06T14:30:05;16.10;99.90
21244;DHT22;10780;50.942;4.028;2023-08-06T14:32:32;16.30;99.90
21244;DHT22;10780;50.942;4.028;2023-08-06T14:34:57;16.50;99.90
21244;DHT22;10780;50.942;4.028;2023-08-06T14:37:24;16.90;99.90
21244;DHT22;10780;50.942;4.028;2023-08-06T14:39:50;17.20;99.90
21244;DHT22;10780;50.942;4.028;2023-08-06T14:42:16;17.70;99.90
21244;DHT22;10780;50.942;4.028;2023-08-06T14:44:41;17.70;99.90
21244;DHT22;10780;50.942;4.028;2023-08-06T14:47:07;17.80;99.90
21244;DHT22;10780;50.942;4.028;2023-08-06T14:49:32;17.90;99.90
21244;DHT22;10780;50.942;4.028;2023-08-06T14:51:58;17.90;99.90
21244;DHT22;10780;50.942;4.028;2023-08-06T14:54:25;18.10;99.90
21244;DHT22;10780;50.942;4.028;2023-08-06T14:56:52;18.10;99.90
21244;DHT22;10780;50.942;4.028;2023-08-06T14:59:17;18.30;99.90
21244;DHT22;10780;50.942;4.028;2023-08-06T15:01:43;17.90;99.90
21244;DHT22;10780;50.942;4.028;2023-08-06T15:04:08;17.90;99.90
21244;DHT22;10780;50.942;4.028;2023-08-06T15:06:34;18.40;99.90
21244;DHT22;10780;50.942;4.028;2023-08-06T15:08:59;18.40;99.90
21244;DHT22;10780;50.942;4.028;2023-08-06T15:11:26;18.40;99.90
21244;DHT22;10780;50.942;4.028;2023-08-06T15:13:52;18.20;99.90
21244;DHT22;10780;50.942;4.028;2023-08-06T15:16:18;18.10;99.90
21244;DHT22;10780;50.942;4.028;2023-08-06T15:18:44;17.70;99.90
21244;DHT22;10780;50.942;4.028;2023-08-06T15:21:10;17.60;99.90
21244;DHT22;10780;50.942;4.028;2023-08-06T15:23:35;17.50;99.90
21244;DHT22;10780;50.942;4.028;2023-08-06T15:26:02;17.40;99.90
21244;DHT22;10780;50.942;4.028;2023-08-06T15:28:28;17.40;99.90
21244;DHT22;10780;50.942;4.028;2023-08-06T15:30:55;17.60;99.90
21244;DHT22;10780;50.942;4.028;2023-08-06T15:33:21;17.60;99.90
21244;DHT22;10780;50.942;4.028;2023-08-06T15:35:47;17.50;99.90
21244;DHT22;10780;50.942;4.028;2023-08-06T15:38:13;17.70;99.90